createdAt,value
2023-03-06T00:05:01.114Z,14.30
2023-03-06T00:10:05.119Z,15.07
2023-03-06T00:15:37.700Z,14.83
2023-03-06T00:20:43.714Z,13.73
2023-03-06T00:25:55.016Z,14.57
2023-03-06T00:31:03.163Z,13.10
2023-03-06T00:36:13.184Z,14.40
2023-03-06T00:41:34.233Z,13.07
2023-03-06T00:46:46.487Z,13.13
2023-03-06T00:51:57.383Z,13.83
2023-03-06T00:57:09.401Z,14.53
2023-03-06T01:02:18.076Z,14.90
2023-03-06T01:07:38.081Z,14.07
2023-03-06T01:12:59.598Z,13.07
2023-03-06T01:18:18.368Z,14.27
2023-03-06T01:23:39.048Z,13.43
2023-03-06T01:28:47.044Z,13.60
2023-03-06T01:34:00.233Z,14.93
2023-03-06T01:39:31.605Z,14.33
2023-03-06T01:50:24.577Z,13.70
2023-03-06T01:56:07.875Z,12.60
2023-03-06T02:01:16.081Z,13.33
2023-03-06T02:06:52.323Z,15.90
2023-03-06T02:12:10.357Z,14.13
2023-03-06T02:17:36.676Z,13.57
2023-03-06T02:23:17.580Z,14.80
2023-03-06T02:28:35.137Z,12.87
2023-03-06T02:33:50.227Z,13.20
2023-03-06T02:39:12.369Z,13.47
2023-03-06T02:44:30.254Z,14.13
2023-03-06T02:49:45.832Z,11.73
2023-03-06T02:54:55.857Z,12.47
2023-03-06T03:00:03.643Z,11.37
2023-03-06T03:05:19.200Z,11.70
2023-03-06T03:21:36.378Z,9.57
2023-03-06T03:27:10.176Z,10.47
2023-03-06T03:32:46.581Z,9.90
2023-03-06T03:38:04.465Z,10.60
2023-03-06T03:43:20.565Z,10.17
2023-03-06T03:48:27.232Z,9.80
2023-03-06T03:53:42.449Z,10.53
2023-03-06T03:59:14.269Z,10.87
2023-03-06T04:16:13.131Z,12.47
2023-03-06T04:21:23.160Z,11.30
2023-03-06T04:26:40.365Z,10.57
2023-03-06T04:31:56.761Z,12.20
2023-03-06T04:37:41.500Z,11.37
2023-03-06T04:42:52.458Z,11.77
2023-03-06T04:48:12.764Z,11.50
2023-03-06T04:53:22.269Z,11.13
2023-03-06T04:58:38.987Z,11.10
2023-03-06T05:10:00.019Z,9.50
2023-03-06T05:26:41.498Z,10.77
2023-03-06T05:31:53.261Z,11.13
2023-03-06T05:37:25.902Z,12.47
2023-03-06T05:42:48.429Z,13.03
2023-03-06T05:48:02.839Z,13.30
2023-03-06T05:53:18.105Z,12.93
2023-03-06T06:04:06.724Z,11.97
2023-03-06T06:09:14.003Z,12.57
2023-03-06T06:14:19.833Z,13.77
2023-03-06T06:19:48.930Z,12.27
2023-03-06T06:25:03.394Z,12.60
2023-03-06T06:30:23.909Z,11.93
2023-03-06T06:35:44.655Z,12.77
2023-03-06T06:41:29.144Z,13.07
2023-03-06T06:47:02.724Z,11.83
2023-03-06T06:51:47.336Z,10.17
2023-03-06T06:56:54.064Z,11.13
2023-03-06T07:01:57.757Z,10.03
2023-03-06T07:07:03.727Z,10.10
2023-03-06T07:12:09.108Z,10.13
2023-03-06T07:17:16.834Z,9.30
2023-03-06T07:22:23.762Z,10.60
2023-03-06T07:27:28.605Z,11.40
2023-03-06T07:32:33.167Z,10.90
2023-03-06T07:37:41.981Z,10.13
2023-03-06T07:42:44.599Z,10.57
2023-03-06T07:47:51.395Z,11.10
2023-03-06T07:52:58.025Z,10.60
2023-03-06T07:58:01.198Z,9.80
2023-03-06T08:03:08.681Z,9.93
2023-03-06T08:08:13.914Z,10.47
2023-03-06T08:13:29.678Z,10.97
2023-03-06T08:18:31.844Z,11.10
2023-03-06T08:23:41.068Z,11.97
2023-03-06T08:28:44.478Z,13.17
2023-03-06T08:33:59.224Z,16.30
2023-03-06T08:39:09.571Z,14.93
2023-03-06T08:44:16.203Z,15.23
2023-03-06T08:49:42.601Z,14.17
2023-03-06T08:54:52.594Z,17.20
2023-03-06T09:00:00.515Z,13.73
2023-03-06T09:05:08.834Z,18.33
2023-03-06T09:10:22.680Z,15.00
2023-03-06T09:15:32.160Z,12.60
2023-03-06T09:20:41.393Z,12.83
2023-03-06T09:25:49.305Z,12.77
2023-03-06T09:30:55.315Z,11.47
2023-03-06T09:35:59.646Z,11.83
2023-03-06T09:41:26.716Z,13.37
2023-03-06T09:46:45.068Z,11.73
2023-03-06T09:51:49.405Z,12.23
2023-03-06T09:56:51.539Z,12.27
2023-03-06T10:01:56.477Z,10.30
2023-03-06T10:07:04.942Z,10.30
2023-03-06T10:12:17.382Z,8.93
2023-03-06T10:17:27.080Z,8.03
2023-03-06T10:22:44.784Z,9.73
2023-03-06T10:27:58.646Z,8.07
2023-03-06T10:33:23.315Z,9.13
2023-03-06T10:38:39.525Z,7.17
2023-03-06T10:43:58.628Z,8.17
2023-03-06T10:49:32.919Z,7.40
2023-03-06T10:54:43.158Z,6.70
2023-03-06T11:00:02.581Z,6.17
2023-03-06T11:05:20.596Z,5.33
2023-03-06T11:10:25.980Z,4.93
2023-03-06T11:15:34.484Z,6.00
2023-03-06T11:20:52.521Z,5.17
2023-03-06T11:26:04.022Z,4.63
2023-03-06T11:31:17.156Z,3.83
2023-03-06T11:36:47.896Z,3.07
2023-03-06T11:42:08.277Z,3.43
2023-03-06T11:47:20.381Z,2.50
2023-03-06T11:52:32.005Z,2.20
2023-03-06T11:58:06.311Z,1.93
2023-03-06T12:03:39.470Z,2.30
2023-03-06T12:09:42.662Z,2.33
2023-03-06T12:15:35.084Z,2.27
2023-03-06T12:21:22.053Z,2.37
2023-03-06T12:27:09.412Z,2.60
2023-03-06T12:32:35.206Z,2.07
2023-03-06T12:38:22.118Z,2.90
2023-03-06T12:44:11.391Z,3.67
2023-03-06T12:49:31.854Z,5.03
2023-03-06T12:54:46.742Z,4.63
2023-03-06T12:59:51.480Z,5.53
2023-03-06T13:05:14.747Z,4.60
2023-03-06T13:10:25.782Z,5.17
2023-03-06T13:15:40.031Z,4.57
2023-03-06T13:20:47.507Z,5.07
2023-03-06T13:25:53.850Z,6.13
2023-03-06T13:31:08.897Z,3.73
2023-03-06T13:36:43.421Z,3.90
2023-03-06T13:42:01.512Z,5.20
2023-03-06T13:47:09.180Z,3.40
2023-03-06T13:52:20.888Z,2.93
2023-03-06T13:57:42.648Z,2.40
2023-03-06T14:03:29.109Z,3.47
2023-03-06T14:08:47.444Z,3.30
2023-03-06T14:13:54.920Z,3.00
2023-03-06T14:19:00.536Z,2.70
2023-03-06T14:24:04.369Z,3.20
2023-03-06T14:29:25.909Z,3.03
2023-03-06T14:34:42.577Z,2.47
2023-03-06T14:40:04.770Z,2.40
2023-03-06T14:45:21.999Z,3.30
2023-03-06T14:50:35.404Z,2.93
2023-03-06T14:55:48.523Z,4.60
2023-03-06T15:00:58.885Z,3.00
2023-03-06T15:06:23.598Z,3.37
2023-03-06T15:12:03.460Z,4.00
2023-03-06T15:17:18.538Z,3.50
2023-03-06T15:22:40.359Z,3.20
2023-03-06T15:28:09.270Z,3.10
2023-03-06T15:33:27.205Z,4.10
2023-03-06T15:38:43.978Z,3.40
2023-03-06T15:43:46.923Z,3.37
2023-03-06T15:49:04.750Z,3.57
2023-03-06T15:54:19.709Z,2.80
2023-03-06T15:59:35.682Z,3.67
2023-03-06T16:04:37.668Z,3.93
2023-03-06T16:09:43.693Z,3.83
2023-03-06T16:14:56.246Z,3.70
2023-03-06T16:20:01.561Z,4.63
2023-03-06T16:25:11.829Z,4.60
2023-03-06T16:30:21.172Z,4.27
2023-03-06T16:35:23.212Z,5.07
2023-03-06T16:40:32.592Z,4.40
2023-03-06T16:45:46.218Z,5.60
2023-03-06T16:50:48.340Z,6.00
2023-03-06T16:55:54.056Z,6.27
2023-03-06T17:00:58.224Z,4.57
2023-03-06T17:17:22.099Z,6.43
2023-03-06T17:22:27.463Z,5.50
2023-03-06T17:27:44.701Z,9.37
2023-03-06T17:32:52.420Z,4.20
2023-03-06T17:39:09.106Z,4.30
2023-03-06T17:44:58.930Z,5.10
2023-03-06T17:50:27.947Z,5.37
2023-03-06T17:55:35.618Z,5.87
2023-03-06T18:00:49.887Z,6.33
2023-03-06T18:11:49.913Z,5.97
2023-03-06T18:17:08.530Z,7.83
2023-03-06T18:27:31.769Z,6.83
2023-03-06T18:45:34.239Z,9.27
2023-03-06T18:50:45.293Z,10.00
2023-03-06T19:29:38.641Z,18.63
2023-03-06T19:41:23.264Z,19.83
2023-03-06T19:52:54.747Z,21.37
2023-03-06T20:17:09.389Z,20.77
2023-03-06T20:22:13.952Z,23.47
2023-03-06T20:46:33.253Z,21.53
2023-03-06T20:52:36.205Z,21.37
2023-03-06T21:17:00.455Z,21.67
2023-03-06T21:29:12.514Z,21.43
2023-03-06T22:01:32.083Z,17.90
2023-03-06T22:06:44.311Z,19.63
2023-03-06T22:11:51.995Z,29.30
2023-03-06T22:17:02.465Z,17.57
2023-03-06T22:22:08.752Z,24.47
2023-03-06T22:27:53.024Z,19.50
2023-03-06T22:33:06.996Z,16.73
2023-03-06T22:38:21.947Z,16.37
2023-03-06T22:43:36.024Z,15.57
2023-03-06T22:49:23.019Z,15.30
2023-03-06T22:54:27.575Z,16.70
2023-03-06T22:59:31.897Z,14.90
2023-03-06T23:04:50.325Z,15.80
2023-03-06T23:09:54.665Z,17.27
2023-03-06T23:15:02.863Z,15.93
2023-03-06T23:20:15.872Z,15.63
2023-03-06T23:25:20.853Z,17.97
2023-03-06T23:30:32.218Z,17.13
2023-03-06T23:35:50.570Z,17.67
2023-03-06T23:41:32.186Z,16.47
2023-03-06T23:46:37.182Z,14.67
2023-03-06T23:51:47.234Z,16.97
2023-03-06T23:57:04.168Z,15.70
